createdAt,value
2018-04-14T00:01:53.382Z,13.27
2018-04-14T00:04:20.783Z,13.23
2018-04-14T00:06:48.171Z,13.18
2018-04-14T00:09:15.558Z,13.18
2018-04-14T00:11:42.962Z,13.14
2018-04-14T00:14:10.347Z,13.10
2018-04-14T00:16:37.731Z,13.08
2018-04-14T00:19:05.118Z,13.07
2018-04-14T00:21:32.506Z,12.98
2018-04-14T00:23:59.975Z,12.92
2018-04-14T00:26:27.371Z,12.90
2018-04-14T00:28:54.759Z,12.90
2018-04-14T00:31:22.147Z,12.91
2018-04-14T00:33:49.684Z,12.86
2018-04-14T00:36:17.070Z,12.90
2018-04-14T00:38:44.467Z,12.93
2018-04-14T00:41:11.859Z,12.97
2018-04-14T00:43:39.246Z,12.93
2018-04-14T00:46:06.637Z,12.93
2018-04-14T00:48:34.020Z,12.97
2018-04-14T00:51:01.423Z,12.99
2018-04-14T00:53:40.631Z,13.01
2018-04-14T00:56:08.026Z,12.98
2018-04-14T00:58:35.414Z,12.95
2018-04-14T01:01:02.805Z,12.90
2018-04-14T01:03:30.195Z,12.87
2018-04-14T01:05:57.582Z,12.83
2018-04-14T01:08:24.989Z,12.78
2018-04-14T01:10:52.380Z,12.70
2018-04-14T01:13:19.763Z,12.69
2018-04-14T01:15:47.159Z,12.69
2018-04-14T01:18:14.550Z,12.65
2018-04-14T01:20:41.943Z,12.59
2018-04-14T01:23:09.326Z,12.54
2018-04-14T01:25:36.715Z,12.50
2018-04-14T01:28:04.109Z,12.45
2018-04-14T01:30:31.504Z,12.39
2018-04-14T01:32:58.900Z,12.38
2018-04-14T01:35:26.275Z,12.36
2018-04-14T01:37:53.667Z,12.32
2018-04-14T01:40:21.062Z,12.27
2018-04-14T01:42:48.453Z,12.31
2018-04-14T01:45:15.847Z,12.29
2018-04-14T01:47:43.234Z,12.31
2018-04-14T01:50:10.678Z,12.25
2018-04-14T01:52:38.058Z,12.22
2018-04-14T01:55:05.447Z,12.23
2018-04-14T01:57:32.833Z,12.20
2018-04-14T02:00:00.219Z,12.16
2018-04-14T02:02:27.616Z,12.09
2018-04-14T02:04:55.007Z,12.15
2018-04-14T02:07:22.403Z,12.10
2018-04-14T02:09:49.791Z,12.15
2018-04-14T02:12:17.174Z,12.12
2018-04-14T02:14:44.568Z,12.11
2018-04-14T02:17:11.947Z,12.13
2018-04-14T02:19:39.339Z,12.11
2018-04-14T02:22:06.722Z,12.09
2018-04-14T02:24:34.119Z,12.10
2018-04-14T02:27:01.508Z,12.00
2018-04-14T02:29:28.890Z,11.96
2018-04-14T02:31:56.282Z,11.92
2018-04-14T02:34:23.668Z,11.90
2018-04-14T02:36:51.059Z,11.90
2018-04-14T02:39:18.451Z,11.88
2018-04-14T02:41:45.850Z,11.86
2018-04-14T02:44:13.230Z,11.83
2018-04-14T02:46:40.623Z,11.81
2018-04-14T02:49:08.015Z,11.70
2018-04-14T02:51:35.403Z,11.75
2018-04-14T02:54:02.799Z,11.73
2018-04-14T02:56:30.183Z,11.74
2018-04-14T02:58:57.619Z,11.74
2018-04-14T03:01:25.009Z,11.72
2018-04-14T03:03:52.391Z,11.64
2018-04-14T03:06:19.783Z,11.67
2018-04-14T03:08:47.167Z,11.59
2018-04-14T03:11:14.595Z,11.62
2018-04-14T03:13:41.975Z,11.64
2018-04-14T03:16:09.367Z,11.59
2018-04-14T03:18:36.762Z,11.56
2018-04-14T03:21:04.150Z,11.52
2018-04-14T03:23:31.538Z,11.47
2018-04-14T03:25:58.931Z,11.54
2018-04-14T03:28:26.635Z,11.51
2018-04-14T03:30:54.019Z,11.47
2018-04-14T03:33:21.402Z,11.45
2018-04-14T03:35:48.799Z,11.44
2018-04-14T03:38:16.187Z,11.43
2018-04-14T03:40:43.580Z,11.42
2018-04-14T03:43:10.963Z,11.33
2018-04-14T03:45:38.380Z,11.33
2018-04-14T03:48:05.738Z,11.29
2018-04-14T03:50:33.131Z,11.25
2018-04-14T03:53:00.515Z,11.21
2018-04-14T03:55:27.907Z,11.23
2018-04-14T03:57:55.291Z,11.18
2018-04-14T04:00:22.678Z,11.13
2018-04-14T04:02:50.071Z,11.07
2018-04-14T04:05:17.453Z,11.02
2018-04-14T04:07:44.847Z,11.03
2018-04-14T04:10:12.382Z,11.01
2018-04-14T04:12:39.772Z,11.00
2018-04-14T04:15:07.159Z,11.02
2018-04-14T04:17:34.543Z,11.01
2018-04-14T04:20:13.746Z,11.14
2018-04-14T04:22:52.915Z,11.27
2018-04-14T04:25:29.959Z,11.29
2018-04-14T04:27:57.364Z,11.31
2018-04-14T04:30:25.223Z,11.43
2018-04-14T04:32:52.609Z,11.50
2018-04-14T04:35:20.011Z,11.52
2018-04-14T04:37:47.398Z,11.55
2018-04-14T04:40:14.795Z,11.54
2018-04-14T04:42:42.182Z,11.61
2018-04-14T04:45:09.570Z,11.59
2018-04-14T04:47:36.975Z,11.65
2018-04-14T04:50:04.363Z,11.65
2018-04-14T04:52:31.751Z,11.66
2018-04-14T04:54:59.171Z,11.60
2018-04-14T04:57:26.552Z,11.57
2018-04-14T04:59:53.947Z,11.53
2018-04-14T05:02:21.330Z,11.52
2018-04-14T05:04:48.735Z,11.61
2018-04-14T05:07:16.119Z,11.60
2018-04-14T05:09:43.510Z,11.60
2018-04-14T05:12:10.903Z,11.71
2018-04-14T05:14:38.295Z,11.76
2018-04-14T05:17:05.691Z,11.81
2018-04-14T05:19:33.071Z,11.85
2018-04-14T05:22:00.806Z,11.85
2018-04-14T05:24:28.191Z,11.85
2018-04-14T05:26:55.583Z,11.89
2018-04-14T05:29:22.970Z,11.89
2018-04-14T05:31:50.359Z,11.92
2018-04-14T05:34:17.751Z,11.95
2018-04-14T05:36:45.154Z,11.97
2018-04-14T05:39:12.548Z,11.99
2018-04-14T05:41:39.930Z,11.95
2018-04-14T05:44:07.315Z,11.96
2018-04-14T05:46:34.703Z,11.94
2018-04-14T05:49:02.092Z,11.98
2018-04-14T05:51:29.483Z,12.05
2018-04-14T05:53:56.867Z,11.97
2018-04-14T05:56:24.472Z,11.96
2018-04-14T05:58:52.170Z,11.96
2018-04-14T06:01:19.554Z,11.94
2018-04-14T06:03:46.942Z,11.99
2018-04-14T06:06:14.326Z,11.87
2018-04-14T06:08:41.718Z,11.98
2018-04-14T06:11:09.111Z,12.00
2018-04-14T06:13:36.510Z,12.00
2018-04-14T06:16:03.898Z,12.07
2018-04-14T06:18:31.291Z,12.10
2018-04-14T06:20:58.725Z,12.19
2018-04-14T06:23:26.115Z,12.14
2018-04-14T06:25:53.512Z,12.23
2018-04-14T06:28:21.156Z,12.29
2018-04-14T06:30:48.979Z,12.40
2018-04-14T06:33:16.366Z,12.51
2018-04-14T06:35:43.755Z,12.45
2018-04-14T06:38:11.148Z,12.48
2018-04-14T06:40:38.535Z,12.55
2018-04-14T06:43:05.932Z,12.55
2018-04-14T06:45:33.319Z,12.61
2018-04-14T06:48:00.719Z,12.64
2018-04-14T06:50:28.121Z,12.75
2018-04-14T06:52:55.516Z,12.77
2018-04-14T06:55:22.906Z,12.83
2018-04-14T06:57:50.295Z,12.87
2018-04-14T07:00:17.690Z,12.90
2018-04-14T07:02:45.084Z,13.00
2018-04-14T07:05:12.479Z,13.05
2018-04-14T07:07:39.867Z,13.10
2018-04-14T07:10:07.262Z,13.15
2018-04-14T07:12:34.650Z,13.28
2018-04-14T07:15:02.044Z,13.36
2018-04-14T07:17:29.487Z,13.43
2018-04-14T07:19:56.823Z,13.50
2018-04-14T07:22:24.230Z,13.63
2018-04-14T07:24:51.619Z,13.58
2018-04-14T07:27:19.079Z,13.64
2018-04-14T07:29:46.496Z,13.62
2018-04-14T07:32:13.951Z,13.69
2018-04-14T07:34:41.330Z,13.74
2018-04-14T07:37:08.715Z,13.80
2018-04-14T07:39:36.427Z,13.85
2018-04-14T07:42:03.848Z,13.92
2018-04-14T07:44:31.237Z,13.98
2018-04-14T07:46:58.631Z,14.02
2018-04-14T07:49:26.012Z,14.11
2018-04-14T07:51:53.403Z,14.28
2018-04-14T07:54:20.794Z,14.41
2018-04-14T07:56:48.199Z,14.60
2018-04-14T07:59:15.599Z,14.62
2018-04-14T08:01:43.075Z,14.65
2018-04-14T08:04:10.468Z,14.57
2018-04-14T08:06:37.862Z,14.61
2018-04-14T08:09:05.975Z,14.72
2018-04-14T08:11:33.404Z,14.72
2018-04-14T08:14:00.758Z,14.70
2018-04-14T08:16:28.151Z,14.69
2018-04-14T08:18:55.535Z,14.80
2018-04-14T08:21:22.927Z,14.85
2018-04-14T08:23:50.315Z,14.91
2018-04-14T08:26:17.775Z,15.04
2018-04-14T08:28:45.170Z,15.19
2018-04-14T08:31:12.589Z,15.31
2018-04-14T08:33:39.998Z,15.43
2018-04-14T08:36:07.395Z,15.46
2018-04-14T08:38:34.786Z,15.61
2018-04-14T08:41:02.199Z,15.67
2018-04-14T08:43:29.595Z,15.80
2018-04-14T08:45:56.994Z,15.86
2018-04-14T08:48:24.418Z,16.07
2018-04-14T08:50:51.814Z,16.22
2018-04-14T08:53:19.203Z,16.46
2018-04-14T08:55:46.602Z,16.56
2018-04-14T08:58:13.985Z,16.88
2018-04-14T09:00:41.382Z,17.11
2018-04-14T09:03:08.781Z,17.35
2018-04-14T09:05:36.161Z,17.62
2018-04-14T09:08:03.555Z,17.93
2018-04-14T09:10:30.939Z,18.07
2018-04-14T09:12:58.351Z,18.40
2018-04-14T09:15:25.754Z,18.73
2018-04-14T09:17:53.222Z,18.85
2018-04-14T09:20:20.615Z,18.92
2018-04-14T09:22:48.007Z,18.72
2018-04-14T09:25:15.400Z,18.67
2018-04-14T09:27:42.783Z,18.80
2018-04-14T09:30:10.183Z,18.98
2018-04-14T09:32:37.567Z,19.20
2018-04-14T09:35:04.966Z,19.42
2018-04-14T09:37:32.378Z,19.31
2018-04-14T09:39:59.762Z,19.27
2018-04-14T09:42:27.160Z,19.65
2018-04-14T09:44:54.555Z,19.69
2018-04-14T09:47:21.951Z,19.69
2018-04-14T09:49:49.341Z,19.60
2018-04-14T09:52:16.727Z,19.85
2018-04-14T09:54:44.123Z,19.75
2018-04-14T09:57:11.519Z,19.64
2018-04-14T09:59:38.903Z,19.76
2018-04-14T10:02:06.295Z,19.89
2018-04-14T10:04:33.695Z,19.85
2018-04-14T10:07:01.079Z,19.30
2018-04-14T10:09:28.470Z,19.25
2018-04-14T10:11:55.866Z,19.19
2018-04-14T10:14:23.261Z,19.29
2018-04-14T10:16:50.663Z,19.23
2018-04-14T10:19:18.047Z,19.39
2018-04-14T10:21:45.449Z,19.40
2018-04-14T10:24:12.830Z,19.42
2018-04-14T10:26:40.224Z,19.76
2018-04-14T10:29:07.713Z,19.88
2018-04-14T10:31:35.091Z,19.87
2018-04-14T10:34:02.487Z,19.92
2018-04-14T10:36:29.870Z,19.98
2018-04-14T10:38:57.266Z,20.13
2018-04-14T10:41:24.674Z,19.93
2018-04-14T10:43:52.112Z,20.45
2018-04-14T10:46:19.451Z,20.63
2018-04-14T10:48:46.846Z,21.08
2018-04-14T10:51:14.246Z,20.84
2018-04-14T10:53:41.632Z,20.63
2018-04-14T10:56:09.024Z,21.40
2018-04-14T10:58:36.418Z,21.72
2018-04-14T11:01:03.799Z,22.32
2018-04-14T11:03:31.199Z,22.95
2018-04-14T11:05:58.590Z,23.28
2018-04-14T11:08:25.978Z,23.53
2018-04-14T11:10:53.367Z,23.89
2018-04-14T11:13:20.848Z,24.02
2018-04-14T11:15:48.239Z,23.75
2018-04-14T11:18:15.635Z,23.96
2018-04-14T11:20:43.031Z,23.89
2018-04-14T11:23:10.419Z,24.00
2018-04-14T11:25:37.832Z,23.94
2018-04-14T11:28:05.254Z,23.62
2018-04-14T11:30:33.046Z,23.64
2018-04-14T11:33:00.436Z,24.26
2018-04-14T11:35:27.819Z,24.75
2018-04-14T11:37:55.215Z,24.85
2018-04-14T11:40:22.610Z,24.18
2018-04-14T11:42:49.998Z,23.78
2018-04-14T11:45:17.390Z,23.88
2018-04-14T11:47:44.783Z,23.72
2018-04-14T11:50:12.170Z,23.82
2018-04-14T11:52:39.563Z,23.68
2018-04-14T11:55:06.959Z,23.62
2018-04-14T11:57:34.372Z,23.46
2018-04-14T12:00:01.739Z,23.80
2018-04-14T12:02:29.126Z,24.16
2018-04-14T12:04:56.511Z,23.94
2018-04-14T12:07:23.903Z,23.44
2018-04-14T12:09:51.325Z,23.10
2018-04-14T12:12:20.355Z,23.52
2018-04-14T12:14:47.787Z,23.81
2018-04-14T12:17:15.131Z,23.82
2018-04-14T12:19:42.528Z,24.13
2018-04-14T12:22:09.915Z,24.11
2018-04-14T12:24:37.306Z,24.03
2018-04-14T12:27:04.696Z,23.95
2018-04-14T12:29:32.092Z,24.07
2018-04-14T12:31:59.487Z,24.07
2018-04-14T12:34:26.876Z,24.18
2018-04-14T12:36:54.595Z,23.40
2018-04-14T12:39:21.991Z,23.07
2018-04-14T12:41:49.380Z,23.25
2018-04-14T12:44:16.774Z,23.41
2018-04-14T12:46:44.159Z,23.05
2018-04-14T12:49:11.815Z,22.67
2018-04-14T12:51:39.203Z,23.19
2018-04-14T12:54:06.603Z,23.44
2018-04-14T12:56:33.995Z,23.78
2018-04-14T12:59:01.383Z,23.69
2018-04-14T13:01:28.780Z,23.75
2018-04-14T13:03:56.166Z,23.89
2018-04-14T13:06:23.555Z,23.87
2018-04-14T13:08:50.956Z,23.80
2018-04-14T13:11:18.342Z,23.94
2018-04-14T13:13:45.734Z,23.26
2018-04-14T13:16:13.126Z,23.09
2018-04-14T13:18:40.523Z,23.06
2018-04-14T13:21:07.923Z,23.03
2018-04-14T13:23:35.305Z,23.13
2018-04-14T13:26:02.722Z,23.12
2018-04-14T13:28:30.104Z,23.39
2018-04-14T13:30:57.499Z,23.71
2018-04-14T13:33:24.887Z,23.69
2018-04-14T13:35:52.275Z,23.63
2018-04-14T13:38:19.667Z,23.55
2018-04-14T13:40:47.055Z,23.80
2018-04-14T13:43:14.500Z,23.67
2018-04-14T13:45:41.874Z,23.44
2018-04-14T13:48:09.279Z,23.10
2018-04-14T13:50:36.663Z,22.92
2018-04-14T13:55:54.900Z,22.55
2018-04-14T13:58:22.290Z,22.50
2018-04-14T14:00:49.680Z,22.39
2018-04-14T14:03:17.079Z,22.43
2018-04-14T14:05:44.463Z,22.82
2018-04-14T14:08:11.854Z,22.58
2018-04-14T14:10:39.247Z,22.46
2018-04-14T14:13:06.631Z,22.36
2018-04-14T14:15:34.171Z,22.40
2018-04-14T14:18:01.568Z,22.38
2018-04-14T14:20:28.963Z,22.08
2018-04-14T14:22:56.355Z,22.21
2018-04-14T14:25:23.761Z,22.37
2018-04-14T14:27:51.147Z,22.38
2018-04-14T14:30:18.535Z,22.49
2018-04-14T14:32:45.926Z,22.45
2018-04-14T14:35:13.411Z,22.61
2018-04-14T14:37:40.806Z,22.05
2018-04-14T14:40:08.198Z,21.61
2018-04-14T14:42:35.611Z,21.89
2018-04-14T14:45:03.026Z,22.03
2018-04-14T14:47:36.076Z,22.23
2018-04-14T14:50:09.152Z,22.16
2018-04-14T14:52:37.522Z,21.84
2018-04-14T14:55:04.919Z,21.67
2018-04-14T14:57:32.302Z,21.90
2018-04-14T14:59:59.703Z,21.73
2018-04-14T15:02:27.095Z,21.77
2018-04-14T15:04:54.496Z,21.49
2018-04-14T15:07:21.884Z,21.34
2018-04-14T15:09:49.262Z,21.36
2018-04-14T15:12:16.669Z,21.26
2018-04-14T15:14:44.039Z,21.34
2018-04-14T15:17:11.431Z,21.33
2018-04-14T15:19:38.856Z,21.50
2018-04-14T15:22:06.245Z,21.61
2018-04-14T15:24:33.632Z,21.57
2018-04-14T15:27:01.024Z,21.44
2018-04-14T15:29:28.416Z,21.07
2018-04-14T15:31:55.811Z,21.30
2018-04-14T15:34:23.195Z,21.47
2018-04-14T15:36:50.591Z,21.45
2018-04-14T15:39:17.979Z,21.19
2018-04-14T15:41:45.382Z,21.16
2018-04-14T15:44:12.783Z,21.17
2018-04-14T15:46:40.172Z,20.93
2018-04-14T15:49:07.558Z,21.01
2018-04-14T15:51:34.946Z,20.64
2018-04-14T15:54:02.340Z,20.54
2018-04-14T15:56:29.745Z,20.52
2018-04-14T15:58:57.122Z,20.36
2018-04-14T16:01:24.511Z,20.40
2018-04-14T16:03:51.960Z,20.27
2018-04-14T16:06:19.309Z,20.04
2018-04-14T16:08:46.713Z,19.96
2018-04-14T16:11:14.118Z,19.81
2018-04-14T16:13:41.663Z,19.93
2018-04-14T16:16:09.052Z,19.97
2018-04-14T16:18:37.065Z,20.08
2018-04-14T16:21:04.451Z,20.17
2018-04-14T16:23:31.877Z,20.29
2018-04-14T16:25:59.251Z,20.29
2018-04-14T16:28:26.647Z,20.30
2018-04-14T16:30:54.040Z,20.19
2018-04-14T16:33:21.427Z,20.26
2018-04-14T16:35:48.823Z,20.17
2018-04-14T16:38:16.217Z,20.11
2018-04-14T16:40:43.611Z,20.07
2018-04-14T16:43:10.996Z,19.92
2018-04-14T16:45:38.383Z,19.80
2018-04-14T16:48:05.791Z,19.81
2018-04-14T16:50:33.167Z,19.65
2018-04-14T16:53:00.555Z,19.61
2018-04-14T16:55:27.955Z,19.58
2018-04-14T16:57:55.368Z,19.60
2018-04-14T17:00:22.764Z,19.49
2018-04-14T17:02:50.154Z,19.46
2018-04-14T17:05:17.558Z,19.41
2018-04-14T17:07:44.971Z,19.29
2018-04-14T17:10:12.380Z,19.26
2018-04-14T17:12:39.763Z,19.20
2018-04-14T17:15:07.163Z,19.15
2018-04-14T17:17:34.555Z,18.99
2018-04-14T17:20:01.947Z,18.93
2018-04-14T17:22:29.335Z,18.86
2018-04-14T17:24:56.727Z,18.89
2018-04-14T17:27:24.107Z,18.78
2018-04-14T17:29:51.509Z,18.64
2018-04-14T17:32:18.891Z,18.56
2018-04-14T17:34:46.295Z,18.52
2018-04-14T17:37:13.683Z,18.58
2018-04-14T17:39:41.071Z,18.49
2018-04-14T17:42:08.486Z,18.53
2018-04-14T17:44:35.878Z,18.55
2018-04-14T17:47:03.274Z,18.56
2018-04-14T17:49:30.671Z,18.63
2018-04-14T17:51:58.063Z,18.63
2018-04-14T17:54:25.451Z,18.44
2018-04-14T17:56:53.760Z,18.38
2018-04-14T17:59:21.147Z,18.29
2018-04-14T18:01:48.558Z,18.27
2018-04-14T18:04:15.948Z,18.27
2018-04-14T18:06:43.326Z,18.22
2018-04-14T18:09:10.723Z,18.23
2018-04-14T18:11:38.138Z,18.19
2018-04-14T18:14:05.524Z,18.13
2018-04-14T18:16:32.910Z,18.06
2018-04-14T18:19:00.308Z,17.98
2018-04-14T18:21:27.694Z,17.97
2018-04-14T18:23:55.111Z,17.96
2018-04-14T18:26:22.494Z,17.95
2018-04-14T18:28:49.883Z,17.91
2018-04-14T18:31:17.278Z,17.92
2018-04-14T18:33:44.667Z,17.89
2018-04-14T18:36:12.064Z,17.93
2018-04-14T18:38:39.455Z,17.87
2018-04-14T18:41:06.847Z,17.78
2018-04-14T18:43:34.237Z,17.78
2018-04-14T18:46:01.647Z,17.78
2018-04-14T18:48:29.039Z,17.77
2018-04-14T18:50:56.883Z,17.81
2018-04-14T18:53:24.347Z,17.80
2018-04-14T18:55:51.735Z,17.80
2018-04-14T18:58:19.135Z,17.87
2018-04-14T19:00:46.532Z,18.02
2018-04-14T19:03:13.931Z,18.04
2018-04-14T19:05:41.319Z,18.09
2018-04-14T19:08:08.711Z,18.11
2018-04-14T19:10:36.107Z,18.12
2018-04-14T19:13:03.506Z,17.99
2018-04-14T19:15:30.908Z,17.96
2018-04-14T19:17:58.330Z,17.96
2018-04-14T19:20:25.681Z,17.91
2018-04-14T19:22:53.071Z,17.90
2018-04-14T19:25:20.533Z,17.84
2018-04-14T19:27:47.912Z,17.76
2018-04-14T19:30:15.303Z,17.73
2018-04-14T19:32:42.715Z,17.70
2018-04-14T19:35:10.112Z,17.71
2018-04-14T19:37:37.553Z,17.66
2018-04-14T19:40:04.907Z,17.65
2018-04-14T19:42:33.294Z,17.55
2018-04-14T19:45:00.703Z,17.53
2018-04-14T19:47:28.099Z,17.47
2018-04-14T19:49:55.480Z,17.47
2018-04-14T19:52:22.875Z,17.48
2018-04-14T19:54:50.266Z,17.34
2018-04-14T19:57:17.662Z,17.28
2018-04-14T19:59:45.094Z,17.36
2018-04-14T20:02:12.739Z,17.28
2018-04-14T20:04:40.128Z,17.20
2018-04-14T20:07:07.525Z,17.16
2018-04-14T20:09:34.906Z,17.16
2018-04-14T20:12:02.292Z,17.12
2018-04-14T20:14:29.684Z,17.01
2018-04-14T20:16:57.077Z,16.93
2018-04-14T20:19:24.467Z,16.94
2018-04-14T20:21:51.858Z,16.95
2018-04-14T20:24:19.252Z,16.99
2018-04-14T20:26:46.647Z,16.96
2018-04-14T20:29:14.032Z,16.87
2018-04-14T20:31:41.432Z,16.79
2018-04-14T20:34:08.818Z,16.69
2018-04-14T20:36:36.221Z,16.64
2018-04-14T20:39:03.613Z,16.48
2018-04-14T20:41:31.439Z,16.38
2018-04-14T20:43:58.839Z,16.33
2018-04-14T20:46:26.226Z,16.32
2018-04-14T20:48:53.623Z,16.21
2018-04-14T20:51:21.007Z,16.25
2018-04-14T20:53:48.394Z,16.22
2018-04-14T20:56:15.782Z,16.22
2018-04-14T20:58:43.180Z,16.17
2018-04-14T21:01:10.563Z,16.21
2018-04-14T21:03:37.947Z,16.23
2018-04-14T21:06:05.401Z,16.27
2018-04-14T21:08:32.804Z,16.30
2018-04-14T21:11:00.198Z,16.37
2018-04-14T21:13:27.587Z,16.38
2018-04-14T21:15:55.238Z,16.38
2018-04-14T21:18:22.627Z,16.43
2018-04-14T21:20:50.027Z,16.45
2018-04-14T21:23:17.411Z,16.47
2018-04-14T21:25:44.801Z,16.51
2018-04-14T21:28:12.195Z,16.56
2018-04-14T21:30:39.584Z,16.59
2018-04-14T21:33:06.982Z,16.56
2018-04-14T21:35:34.371Z,16.55
2018-04-14T21:38:01.782Z,16.47
2018-04-14T21:40:29.170Z,16.43
2018-04-14T21:42:56.559Z,16.46
2018-04-14T21:45:23.948Z,16.44
2018-04-14T21:47:51.336Z,16.47
2018-04-14T21:50:18.726Z,16.39
2018-04-14T21:52:46.110Z,16.32
2018-04-14T21:55:13.503Z,16.36
2018-04-14T21:57:40.894Z,16.37
2018-04-14T22:00:08.292Z,16.30
2018-04-14T22:02:35.680Z,16.33
2018-04-14T22:05:03.070Z,16.33
2018-04-14T22:07:30.454Z,16.36
2018-04-14T22:09:57.851Z,16.45
2018-04-14T22:12:25.487Z,16.59
2018-04-14T22:14:53.227Z,16.61
2018-04-14T22:17:20.627Z,16.58
2018-04-14T22:19:48.020Z,16.55
2018-04-14T22:22:15.426Z,16.46
2018-04-14T22:24:42.811Z,16.42
2018-04-14T22:27:10.210Z,16.31
2018-04-14T22:29:37.602Z,16.26
2018-04-14T22:32:05.183Z,16.14
2018-04-14T22:34:32.566Z,16.16
2018-04-14T22:36:59.958Z,16.14
2018-04-14T22:39:27.371Z,16.19
2018-04-14T22:41:54.743Z,16.05
2018-04-14T22:44:22.151Z,16.09
2018-04-14T22:46:49.543Z,16.09
2018-04-14T22:49:16.939Z,15.97
2018-04-14T22:51:44.336Z,16.02
2018-04-14T22:54:11.723Z,16.02
2018-04-14T22:56:39.118Z,16.06
2018-04-14T22:59:06.507Z,16.05
2018-04-14T23:01:33.898Z,16.05
2018-04-14T23:04:01.287Z,15.94
2018-04-14T23:06:28.687Z,15.95
2018-04-14T23:08:56.081Z,15.88
2018-04-14T23:11:23.471Z,15.87
2018-04-14T23:13:50.867Z,15.92
2018-04-14T23:16:18.259Z,15.81
2018-04-14T23:18:45.647Z,15.88
2018-04-14T23:21:13.035Z,15.82
2018-04-14T23:23:40.432Z,15.73
2018-04-14T23:26:08.008Z,15.74
2018-04-14T23:28:35.675Z,15.78
2018-04-14T23:31:03.058Z,15.83
2018-04-14T23:33:30.443Z,15.86
2018-04-14T23:35:57.838Z,15.92
2018-04-14T23:38:25.223Z,15.94
2018-04-14T23:40:52.632Z,15.94
2018-04-14T23:43:20.019Z,15.99
2018-04-14T23:45:47.436Z,16.02
2018-04-14T23:48:14.838Z,15.97
2018-04-14T23:50:42.227Z,15.90
2018-04-14T23:58:51.383Z,15.78
